createdAt,value
2019-04-30T00:01:39.077Z,5.73
2019-04-30T00:04:13.144Z,5.73
2019-04-30T00:06:42.953Z,5.76
2019-04-30T00:09:18.998Z,5.49
2019-04-30T00:11:46.195Z,5.47
2019-04-30T00:14:16.064Z,5.53
2019-04-30T00:16:45.754Z,5.46
2019-04-30T00:19:19.469Z,5.40
2019-04-30T00:21:50.091Z,5.40
2019-04-30T00:24:18.286Z,5.30
2019-04-30T00:26:52.295Z,5.29
2019-04-30T00:29:26.939Z,5.29
2019-04-30T00:31:51.120Z,5.42
2019-04-30T00:34:21.179Z,5.43
2019-04-30T00:36:51.051Z,5.39
2019-04-30T00:39:21.074Z,5.38
2019-04-30T00:41:50.971Z,5.41
2019-04-30T00:44:26.845Z,5.52
2019-04-30T00:46:52.526Z,5.46
2019-04-30T00:49:24.163Z,5.40
2019-04-30T00:51:57.063Z,5.38
2019-04-30T00:54:27.955Z,5.38
2019-04-30T00:57:03.620Z,5.35
2019-04-30T00:59:28.556Z,5.35
2019-04-30T01:02:20.011Z,5.26
2019-04-30T01:04:49.197Z,5.18
2019-04-30T01:07:19.152Z,5.22
2019-04-30T01:09:49.890Z,5.04
2019-04-30T01:12:25.529Z,4.95
2019-04-30T01:14:51.352Z,5.04
2019-04-30T01:17:21.135Z,5.06
2019-04-30T01:19:54.527Z,5.16
2019-04-30T01:22:28.226Z,5.07
2019-04-30T01:24:54.990Z,4.87
2019-04-30T01:27:25.151Z,4.77
2019-04-30T01:29:55.023Z,4.91
2019-04-30T01:32:24.864Z,5.02
2019-04-30T01:34:54.781Z,5.00
2019-04-30T01:37:28.747Z,4.88
2019-04-30T01:39:55.950Z,4.77
2019-04-30T01:42:25.967Z,4.70
2019-04-30T01:44:56.193Z,4.61
2019-04-30T01:47:27.848Z,4.64
2019-04-30T01:50:04.819Z,4.73
2019-04-30T01:52:52.772Z,4.78
2019-04-30T01:55:25.720Z,4.89
2019-04-30T01:57:59.082Z,4.90
2019-04-30T02:00:49.343Z,4.94
2019-04-30T02:03:20.565Z,4.91
2019-04-30T02:05:50.355Z,4.92
2019-04-30T02:08:20.250Z,4.90
2019-04-30T02:10:51.394Z,4.85
2019-04-30T02:13:21.426Z,4.87
2019-04-30T02:15:51.321Z,4.85
2019-04-30T02:18:21.139Z,4.75
2019-04-30T02:20:50.925Z,4.73
2019-04-30T02:23:20.674Z,4.60
2019-04-30T02:25:50.451Z,4.55
2019-04-30T02:28:20.199Z,4.41
2019-04-30T02:30:50.739Z,4.47
2019-04-30T02:33:20.885Z,4.61
2019-04-30T02:35:52.383Z,4.62
2019-04-30T02:38:30.244Z,4.67
2019-04-30T02:41:01.135Z,4.58
2019-04-30T02:43:33.146Z,4.45
2019-04-30T02:46:04.761Z,4.38
2019-04-30T02:48:39.710Z,4.38
2019-04-30T02:51:11.566Z,4.33
2019-04-30T02:53:53.517Z,4.33
2019-04-30T02:56:26.736Z,4.44
2019-04-30T02:58:56.584Z,4.39
2019-04-30T03:01:26.337Z,4.33
2019-04-30T03:03:56.079Z,4.25
2019-04-30T03:06:26.111Z,4.22
2019-04-30T03:08:55.899Z,4.19
2019-04-30T03:11:25.692Z,4.22
2019-04-30T03:13:55.452Z,4.35
2019-04-30T03:16:43.413Z,4.36
2019-04-30T03:19:19.538Z,4.25
2019-04-30T03:21:52.891Z,4.33
2019-04-30T03:24:22.713Z,4.27
2019-04-30T03:26:52.566Z,4.08
2019-04-30T03:29:23.927Z,4.15
2019-04-30T03:31:54.009Z,4.26
2019-04-30T03:34:25.773Z,4.39
2019-04-30T03:36:55.364Z,4.29
2019-04-30T03:39:25.126Z,4.25
2019-04-30T03:41:54.978Z,4.34
2019-04-30T03:44:25.887Z,4.35
2019-04-30T03:46:56.167Z,4.44
2019-04-30T03:49:33.053Z,4.48
2019-04-30T03:52:03.247Z,4.54
2019-04-30T03:54:33.017Z,4.61
2019-04-30T03:57:02.751Z,4.57
2019-04-30T03:59:32.502Z,4.47
2019-04-30T04:02:12.254Z,4.42
2019-04-30T04:04:45.484Z,4.36
2019-04-30T04:07:16.958Z,4.33
2019-04-30T04:09:59.793Z,4.36
2019-04-30T04:12:30.455Z,4.41
2019-04-30T04:15:03.973Z,4.59
2019-04-30T04:17:32.508Z,4.66
2019-04-30T04:20:02.787Z,4.66
2019-04-30T04:22:32.656Z,4.67
2019-04-30T04:25:02.469Z,4.83
2019-04-30T04:27:32.252Z,5.11
2019-04-30T04:30:02.054Z,5.64
2019-04-30T04:32:31.805Z,6.21
2019-04-30T04:35:01.691Z,6.72
2019-04-30T04:37:31.561Z,6.78
2019-04-30T04:40:01.331Z,6.73
2019-04-30T04:42:33.059Z,6.55
2019-04-30T04:45:03.041Z,6.19
2019-04-30T04:47:32.853Z,6.40
2019-04-30T04:50:02.767Z,6.54
2019-04-30T04:52:32.646Z,6.74
2019-04-30T04:55:02.375Z,6.81
2019-04-30T04:57:32.153Z,6.91
2019-04-30T05:00:07.155Z,6.96
2019-04-30T05:02:39.661Z,7.02
2019-04-30T05:05:10.038Z,7.10
2019-04-30T05:07:40.148Z,7.21
2019-04-30T05:10:10.414Z,7.33
2019-04-30T05:12:40.288Z,7.37
2019-04-30T05:15:10.452Z,7.55
2019-04-30T05:17:40.295Z,7.53
2019-04-30T05:20:10.287Z,7.62
2019-04-30T05:22:40.098Z,7.75
2019-04-30T05:25:10.361Z,7.91
2019-04-30T05:27:40.218Z,8.04
2019-04-30T05:30:12.181Z,8.19
2019-04-30T05:32:42.280Z,8.32
2019-04-30T05:35:12.093Z,8.40
2019-04-30T05:37:41.936Z,8.55
2019-04-30T05:40:11.948Z,8.64
2019-04-30T05:42:41.660Z,8.72
2019-04-30T05:45:11.922Z,8.77
2019-04-30T05:47:41.810Z,8.82
2019-04-30T05:50:12.408Z,8.85
2019-04-30T05:52:42.129Z,8.98
2019-04-30T05:55:12.311Z,9.07
2019-04-30T05:57:53.142Z,9.18
2019-04-30T06:00:13.992Z,9.33
2019-04-30T06:02:43.793Z,9.47
2019-04-30T06:05:13.717Z,9.66
2019-04-30T06:07:43.484Z,9.73
2019-04-30T06:10:15.401Z,9.76
2019-04-30T06:12:46.762Z,9.87
2019-04-30T06:15:19.396Z,10.09
2019-04-30T06:18:00.891Z,10.69
2019-04-30T06:20:25.438Z,11.28
2019-04-30T06:22:57.036Z,11.85
2019-04-30T06:25:33.686Z,12.13
2019-04-30T06:27:59.728Z,12.55
2019-04-30T06:30:32.186Z,12.56
2019-04-30T06:33:02.678Z,13.20
2019-04-30T06:35:32.569Z,12.67
2019-04-30T06:38:02.503Z,12.93
2019-04-30T06:40:32.396Z,13.36
2019-04-30T06:43:02.274Z,13.27
2019-04-30T06:45:32.813Z,13.17
2019-04-30T06:48:05.878Z,13.43
2019-04-30T06:50:35.732Z,13.96
2019-04-30T06:53:05.537Z,14.63
2019-04-30T06:55:35.296Z,14.15
2019-04-30T06:58:14.802Z,14.03
2019-04-30T07:00:39.983Z,14.53
2019-04-30T07:03:10.306Z,14.34
2019-04-30T07:05:40.116Z,14.27
2019-04-30T07:08:37.206Z,13.87
2019-04-30T07:11:19.589Z,13.69
2019-04-30T07:13:52.251Z,13.84
2019-04-30T07:16:22.385Z,13.93
2019-04-30T07:18:52.196Z,14.00
2019-04-30T07:21:22.008Z,13.94
2019-04-30T07:23:52.082Z,13.86
2019-04-30T07:26:24.404Z,14.00
2019-04-30T07:28:55.245Z,14.10
2019-04-30T07:31:25.199Z,14.18
2019-04-30T07:33:55.028Z,14.38
2019-04-30T07:36:42.435Z,14.58
2019-04-30T07:38:56.928Z,14.54
2019-04-30T07:41:30.813Z,14.72
2019-04-30T07:43:59.462Z,14.92
2019-04-30T07:46:29.963Z,14.97
2019-04-30T07:49:00.214Z,15.07
2019-04-30T07:51:32.062Z,15.29
2019-04-30T07:54:01.563Z,15.59
2019-04-30T07:56:37.339Z,15.86
2019-04-30T07:59:03.040Z,15.56
2019-04-30T08:01:33.123Z,15.59
2019-04-30T08:04:08.862Z,15.75
2019-04-30T08:06:39.788Z,16.05
2019-04-30T08:09:10.943Z,16.09
2019-04-30T08:11:43.446Z,16.58
2019-04-30T08:14:12.132Z,16.17
2019-04-30T08:16:41.869Z,16.54
2019-04-30T08:19:11.698Z,16.50
2019-04-30T08:21:41.562Z,16.70
2019-04-30T08:24:11.332Z,16.67
2019-04-30T08:26:41.757Z,16.84
2019-04-30T08:29:11.580Z,17.00
2019-04-30T08:31:41.355Z,17.36
2019-04-30T08:34:11.193Z,17.53
2019-04-30T08:36:40.939Z,17.25
2019-04-30T08:39:10.805Z,18.02
2019-04-30T08:41:40.637Z,18.16
2019-04-30T08:44:10.468Z,17.95
2019-04-30T08:46:40.237Z,18.02
2019-04-30T08:49:10.314Z,17.76
2019-04-30T08:51:40.639Z,17.80
2019-04-30T08:54:10.808Z,17.49
2019-04-30T08:56:40.634Z,17.34
2019-04-30T08:59:11.234Z,17.18
2019-04-30T09:01:41.329Z,17.62
2019-04-30T09:04:11.066Z,17.63
2019-04-30T09:06:41.067Z,17.63
2019-04-30T09:09:12.820Z,18.15
2019-04-30T09:11:52.435Z,18.01
2019-04-30T09:14:14.069Z,17.95
2019-04-30T09:16:44.072Z,18.28
2019-04-30T09:19:13.997Z,18.21
2019-04-30T09:21:43.721Z,18.36
2019-04-30T09:24:13.451Z,18.75
2019-04-30T09:26:43.183Z,19.04
2019-04-30T09:29:13.061Z,19.27
2019-04-30T09:31:42.809Z,19.13
2019-04-30T09:34:16.999Z,19.21
2019-04-30T09:36:43.999Z,19.25
2019-04-30T09:39:13.952Z,18.82
2019-04-30T09:41:43.738Z,19.03
2019-04-30T09:44:13.476Z,18.90
2019-04-30T09:46:43.226Z,19.01
2019-04-30T09:49:12.992Z,19.44
2019-04-30T09:51:42.827Z,19.53
2019-04-30T09:54:13.458Z,19.73
2019-04-30T09:56:43.628Z,19.38
2019-04-30T09:59:13.364Z,19.49
2019-04-30T10:01:43.293Z,19.74
2019-04-30T10:04:13.573Z,20.07
2019-04-30T10:06:43.589Z,20.38
2019-04-30T10:09:14.715Z,20.19
2019-04-30T10:11:59.558Z,19.96
2019-04-30T10:14:29.397Z,20.52
2019-04-30T10:17:12.843Z,19.73
2019-04-30T10:19:42.595Z,20.30
2019-04-30T10:22:12.425Z,20.12
2019-04-30T10:24:42.194Z,20.74
2019-04-30T10:27:13.470Z,20.87
2019-04-30T10:29:43.589Z,21.02
2019-04-30T10:32:13.334Z,20.25
2019-04-30T10:34:43.020Z,21.13
2019-04-30T10:37:13.347Z,21.33
2019-04-30T10:39:43.109Z,21.73
2019-04-30T10:42:12.809Z,21.68
2019-04-30T10:44:42.518Z,20.99
2019-04-30T10:47:12.448Z,21.02
2019-04-30T10:49:44.186Z,21.40
2019-04-30T10:52:14.002Z,20.23
2019-04-30T10:54:43.846Z,20.36
2019-04-30T10:57:13.536Z,20.40
2019-04-30T10:59:43.317Z,20.23
2019-04-30T11:02:13.079Z,20.51
2019-04-30T11:04:42.776Z,20.62
2019-04-30T11:07:12.550Z,20.96
2019-04-30T11:09:42.380Z,20.32
2019-04-30T11:12:12.129Z,20.54
2019-04-30T11:14:41.898Z,20.06
2019-04-30T11:17:11.646Z,20.02
2019-04-30T11:19:41.622Z,20.06
2019-04-30T11:22:11.702Z,20.56
2019-04-30T11:24:56.692Z,20.95
2019-04-30T11:27:13.511Z,20.68
2019-04-30T11:29:43.936Z,20.70
2019-04-30T11:32:15.548Z,21.06
2019-04-30T11:34:45.417Z,20.80
2019-04-30T11:37:15.247Z,20.73
2019-04-30T11:39:45.199Z,20.97
2019-04-30T11:42:14.944Z,20.59
2019-04-30T11:44:44.835Z,21.04
2019-04-30T11:47:23.468Z,20.77
2019-04-30T11:49:53.327Z,20.49
2019-04-30T11:52:23.311Z,20.70
2019-04-30T11:54:54.628Z,21.25
2019-04-30T11:57:24.659Z,20.82
2019-04-30T11:59:54.425Z,20.56
2019-04-30T12:02:25.885Z,20.64
2019-04-30T12:04:55.595Z,20.43
2019-04-30T12:07:26.977Z,20.38
2019-04-30T12:10:01.113Z,20.23
2019-04-30T12:12:30.846Z,20.46
2019-04-30T12:15:02.743Z,20.26
2019-04-30T12:17:32.012Z,20.53
2019-04-30T12:20:01.758Z,20.37
2019-04-30T12:22:31.655Z,20.49
2019-04-30T12:25:03.241Z,20.16
2019-04-30T12:27:33.099Z,20.29
2019-04-30T12:30:03.243Z,20.71
2019-04-30T12:32:35.188Z,20.49
2019-04-30T12:35:06.201Z,20.60
2019-04-30T12:37:35.961Z,20.60
2019-04-30T12:40:09.531Z,20.88
2019-04-30T12:42:40.965Z,20.79
2019-04-30T12:45:10.961Z,20.78
2019-04-30T12:47:42.433Z,20.98
2019-04-30T12:50:19.565Z,20.53
2019-04-30T12:52:53.553Z,20.56
2019-04-30T12:55:29.395Z,20.28
2019-04-30T12:58:01.571Z,20.63
2019-04-30T13:00:31.905Z,20.59
2019-04-30T13:03:01.903Z,20.77
2019-04-30T13:05:31.786Z,20.86
2019-04-30T13:08:02.385Z,21.14
2019-04-30T13:10:33.015Z,21.02
2019-04-30T13:13:03.488Z,21.08
2019-04-30T13:15:33.390Z,20.93
2019-04-30T13:18:03.219Z,20.98
2019-04-30T13:20:33.171Z,20.87
2019-04-30T13:23:03.062Z,20.18
2019-04-30T13:25:35.594Z,19.68
2019-04-30T13:28:06.040Z,19.75
2019-04-30T13:30:36.341Z,19.64
2019-04-30T13:33:13.516Z,19.60
2019-04-30T13:35:43.264Z,19.63
2019-04-30T13:38:14.721Z,19.46
2019-04-30T13:40:49.082Z,19.53
2019-04-30T13:43:23.205Z,19.48
2019-04-30T13:45:53.008Z,19.38
2019-04-30T13:48:22.836Z,19.39
2019-04-30T13:50:52.676Z,19.63
2019-04-30T13:53:22.441Z,19.49
2019-04-30T13:55:52.189Z,19.40
2019-04-30T13:58:21.946Z,19.51
2019-04-30T14:00:51.763Z,19.57
2019-04-30T14:03:26.145Z,19.77
2019-04-30T14:05:55.963Z,19.97
2019-04-30T14:08:30.223Z,19.58
2019-04-30T14:10:59.990Z,19.60
2019-04-30T14:13:29.860Z,19.45
2019-04-30T14:15:59.725Z,19.40
2019-04-30T14:18:33.840Z,19.35
2019-04-30T14:21:01.253Z,19.14
2019-04-30T14:23:31.071Z,19.09
2019-04-30T14:26:01.265Z,19.06
2019-04-30T14:28:31.160Z,19.03
2019-04-30T14:31:00.922Z,19.06
2019-04-30T14:33:30.627Z,19.01
2019-04-30T14:36:00.837Z,19.01
2019-04-30T14:38:31.219Z,19.11
2019-04-30T14:41:02.022Z,19.06
2019-04-30T14:43:42.389Z,19.07
2019-04-30T14:46:13.462Z,18.96
2019-04-30T14:48:51.744Z,18.98
2019-04-30T14:51:21.777Z,18.80
2019-04-30T14:53:53.761Z,18.73
2019-04-30T14:56:25.295Z,18.77
2019-04-30T14:59:12.722Z,18.74
2019-04-30T15:01:44.032Z,18.77
2019-04-30T15:04:13.995Z,18.78
2019-04-30T15:06:43.675Z,18.77
2019-04-30T15:09:13.971Z,18.76
2019-04-30T15:11:43.719Z,18.75
2019-04-30T15:14:13.497Z,18.84
2019-04-30T15:16:43.170Z,18.81
2019-04-30T15:19:12.898Z,18.72
2019-04-30T15:21:42.695Z,18.61
2019-04-30T15:24:14.029Z,18.55
2019-04-30T15:26:43.850Z,18.51
2019-04-30T15:29:16.157Z,18.44
2019-04-30T15:31:45.127Z,18.31
2019-04-30T15:34:14.897Z,18.37
2019-04-30T15:36:44.577Z,18.56
2019-04-30T15:39:25.263Z,18.49
2019-04-30T15:41:54.933Z,18.43
2019-04-30T15:44:24.722Z,18.65
2019-04-30T15:46:54.472Z,18.68
2019-04-30T15:49:24.183Z,18.96
2019-04-30T15:51:53.940Z,18.93
2019-04-30T15:54:23.911Z,18.95
2019-04-30T15:56:53.670Z,18.85
2019-04-30T15:59:31.010Z,18.78
2019-04-30T16:02:02.325Z,18.91
2019-04-30T16:04:49.986Z,18.97
2019-04-30T16:07:19.748Z,18.98
2019-04-30T16:10:00.431Z,18.80
2019-04-30T16:12:49.803Z,18.98
2019-04-30T16:15:19.670Z,18.85
2019-04-30T16:17:51.075Z,18.78
2019-04-30T16:20:20.873Z,18.73
2019-04-30T16:22:50.558Z,18.48
2019-04-30T16:25:20.325Z,18.30
2019-04-30T16:27:50.015Z,18.07
2019-04-30T16:30:19.935Z,17.97
2019-04-30T16:32:50.731Z,17.90
2019-04-30T16:35:20.461Z,17.83
2019-04-30T16:37:50.233Z,17.78
2019-04-30T16:40:19.991Z,17.73
2019-04-30T16:42:49.944Z,17.68
2019-04-30T16:45:19.755Z,17.64
2019-04-30T16:47:49.513Z,17.62
2019-04-30T16:50:19.378Z,17.55
2019-04-30T16:52:49.805Z,17.53
2019-04-30T16:55:19.830Z,17.51
2019-04-30T16:57:50.268Z,17.49
2019-04-30T17:00:21.472Z,17.41
2019-04-30T17:02:52.835Z,17.33
2019-04-30T17:05:24.165Z,17.34
2019-04-30T17:08:10.751Z,17.30
2019-04-30T17:10:42.156Z,17.27
2019-04-30T17:13:19.823Z,17.22
2019-04-30T17:16:03.354Z,17.12
2019-04-30T17:18:33.041Z,17.07
2019-04-30T17:21:02.797Z,17.01
2019-04-30T17:23:32.504Z,16.92
2019-04-30T17:26:02.282Z,16.88
2019-04-30T17:28:31.987Z,16.81
2019-04-30T17:31:01.693Z,16.79
2019-04-30T17:33:31.420Z,16.73
2019-04-30T17:36:01.173Z,16.65
2019-04-30T17:38:31.244Z,16.56
2019-04-30T17:41:01.060Z,16.50
2019-04-30T17:43:30.768Z,16.52
2019-04-30T17:46:00.436Z,16.47
2019-04-30T17:48:33.367Z,16.35
2019-04-30T17:51:03.050Z,16.34
2019-04-30T17:53:33.811Z,16.20
2019-04-30T17:56:03.574Z,16.13
2019-04-30T17:58:33.273Z,16.07
2019-04-30T18:01:04.618Z,16.05
2019-04-30T18:03:34.329Z,15.98
2019-04-30T18:06:04.142Z,15.97
2019-04-30T18:08:33.921Z,15.89
2019-04-30T18:11:03.602Z,15.88
2019-04-30T18:13:33.377Z,15.81
2019-04-30T18:16:03.053Z,15.83
2019-04-30T18:18:34.467Z,15.74
2019-04-30T18:21:05.864Z,15.70
2019-04-30T18:23:42.984Z,15.70
2019-04-30T18:26:14.308Z,15.64
2019-04-30T18:28:44.102Z,15.51
2019-04-30T18:31:13.842Z,15.47
2019-04-30T18:33:43.618Z,15.40
2019-04-30T18:36:13.308Z,15.36
2019-04-30T18:38:43.012Z,15.29
2019-04-30T18:41:12.698Z,15.17
2019-04-30T18:43:42.491Z,15.12
2019-04-30T18:46:12.260Z,15.09
2019-04-30T18:48:44.009Z,15.01
2019-04-30T18:51:30.115Z,14.95
2019-04-30T18:53:47.026Z,14.86
2019-04-30T18:56:16.678Z,14.84
2019-04-30T18:58:48.519Z,14.73
2019-04-30T19:01:18.012Z,14.69
2019-04-30T19:03:49.256Z,14.55
2019-04-30T19:06:26.185Z,14.40
2019-04-30T19:08:58.483Z,14.36
2019-04-30T19:11:45.842Z,14.35
2019-04-30T19:14:19.246Z,14.25
2019-04-30T19:16:53.757Z,14.25
2019-04-30T19:19:31.142Z,14.12
2019-04-30T19:22:00.857Z,13.99
2019-04-30T19:24:30.557Z,13.94
2019-04-30T19:27:00.345Z,13.81
2019-04-30T19:29:30.207Z,13.75
2019-04-30T19:31:59.981Z,13.70
2019-04-30T19:34:31.691Z,13.56
2019-04-30T19:37:01.213Z,13.46
2019-04-30T19:39:32.544Z,13.44
2019-04-30T19:42:02.414Z,13.32
2019-04-30T19:44:32.183Z,13.22
2019-04-30T19:47:02.167Z,13.13
2019-04-30T19:49:32.184Z,13.06
2019-04-30T19:52:08.603Z,12.94
2019-04-30T19:54:34.905Z,12.83
2019-04-30T19:57:05.338Z,12.71
2019-04-30T19:59:35.148Z,12.62
2019-04-30T20:02:05.375Z,12.54
2019-04-30T20:04:36.482Z,12.35
2019-04-30T20:07:08.755Z,12.24
2019-04-30T20:09:38.786Z,12.22
2019-04-30T20:12:10.652Z,12.11
2019-04-30T20:14:40.769Z,11.93
2019-04-30T20:17:13.120Z,11.81
2019-04-30T20:19:42.498Z,11.75
2019-04-30T20:22:13.084Z,11.54
2019-04-30T20:24:43.161Z,11.55
2019-04-30T20:27:13.633Z,11.41
2019-04-30T20:29:43.481Z,11.31
2019-04-30T20:32:13.462Z,11.20
2019-04-30T20:34:43.213Z,11.12
2019-04-30T20:37:12.933Z,11.10
2019-04-30T20:39:59.328Z,10.97
2019-04-30T20:42:29.117Z,10.87
2019-04-30T20:44:58.968Z,10.89
2019-04-30T20:47:30.001Z,10.64
2019-04-30T20:49:59.854Z,10.67
2019-04-30T20:52:32.227Z,10.62
2019-04-30T20:55:01.030Z,10.54
2019-04-30T20:57:30.913Z,10.43
2019-04-30T21:00:00.596Z,10.40
2019-04-30T21:02:30.521Z,10.28
2019-04-30T21:05:00.366Z,10.18
2019-04-30T21:07:30.082Z,10.19
2019-04-30T21:10:00.420Z,10.26
2019-04-30T21:12:30.236Z,10.17
2019-04-30T21:15:00.098Z,10.10
2019-04-30T21:17:30.064Z,10.23
2019-04-30T21:20:00.983Z,10.17
2019-04-30T21:22:31.587Z,10.15
2019-04-30T21:25:01.339Z,10.21
2019-04-30T21:27:31.430Z,10.21
2019-04-30T21:30:01.097Z,10.16
2019-04-30T21:32:49.067Z,10.16
2019-04-30T21:35:20.407Z,10.13
2019-04-30T21:37:50.118Z,10.01
2019-04-30T21:40:19.803Z,9.93
2019-04-30T21:42:49.587Z,10.04
2019-04-30T21:45:20.318Z,10.00
2019-04-30T21:47:56.387Z,10.05
2019-04-30T21:50:21.639Z,9.99
2019-04-30T21:52:51.342Z,10.03
2019-04-30T21:55:21.235Z,9.98
2019-04-30T21:57:50.997Z,9.99
2019-04-30T22:00:22.960Z,9.85
2019-04-30T22:02:52.838Z,9.88
2019-04-30T22:05:22.689Z,9.87
2019-04-30T22:07:52.345Z,9.89
2019-04-30T22:10:22.220Z,9.79
2019-04-30T22:12:51.935Z,9.71
2019-04-30T22:15:21.764Z,9.72
2019-04-30T22:17:51.528Z,9.67
2019-04-30T22:20:21.227Z,9.64
2019-04-30T22:22:50.946Z,9.57
2019-04-30T22:25:20.763Z,9.38
2019-04-30T22:27:50.441Z,9.61
2019-04-30T22:30:20.378Z,9.64
2019-04-30T22:32:50.345Z,9.63
2019-04-30T22:35:21.744Z,9.47
2019-04-30T22:37:53.133Z,9.52
2019-04-30T22:40:22.868Z,9.43
2019-04-30T22:42:52.632Z,9.44
2019-04-30T22:45:24.222Z,9.39
2019-04-30T22:47:53.956Z,9.42
2019-04-30T22:50:23.729Z,9.52
2019-04-30T22:52:53.509Z,9.35
2019-04-30T22:55:23.225Z,9.46
2019-04-30T22:57:52.971Z,9.52
2019-04-30T23:00:27.383Z,9.46
2019-04-30T23:02:58.734Z,9.44
2019-04-30T23:05:28.549Z,9.39
2019-04-30T23:07:58.348Z,9.44
2019-04-30T23:10:28.055Z,9.47
2019-04-30T23:12:57.950Z,9.37
2019-04-30T23:15:27.704Z,9.50
2019-04-30T23:18:00.808Z,9.50
2019-04-30T23:20:30.837Z,9.64
2019-04-30T23:23:00.514Z,9.50
2019-04-30T23:25:30.287Z,9.58
2019-04-30T23:27:59.983Z,9.62
2019-04-30T23:30:30.245Z,9.56
2019-04-30T23:32:59.951Z,9.67
2019-04-30T23:35:29.808Z,9.65
2019-04-30T23:37:59.544Z,9.60
2019-04-30T23:40:44.348Z,9.58
2019-04-30T23:43:14.012Z,9.61
2019-04-30T23:45:43.800Z,9.61
2019-04-30T23:48:14.610Z,9.63
2019-04-30T23:50:45.072Z,9.76
2019-04-30T23:56:12.686Z,9.55
2019-04-30T23:58:46.165Z,9.59
